createdAt,value
2018-03-22T00:01:46.267Z,18.08
2018-03-22T00:04:15.831Z,14.95
2018-03-22T00:06:45.646Z,17.58
2018-03-22T00:09:16.445Z,13.40
2018-03-22T00:11:45.708Z,17.87
2018-03-22T00:14:15.448Z,16.77
2018-03-22T00:16:45.519Z,17.02
2018-03-22T00:19:15.060Z,17.60
2018-03-22T00:21:44.984Z,18.10
2018-03-22T00:24:14.711Z,18.08
2018-03-22T00:26:43.855Z,15.02
2018-03-22T00:29:14.216Z,14.90
2018-03-22T00:31:44.991Z,18.10
2018-03-22T00:34:15.415Z,17.25
2018-03-22T00:36:44.879Z,16.50
2018-03-22T00:39:14.590Z,20.08
2018-03-22T00:41:44.238Z,18.92
2018-03-22T00:44:14.912Z,17.70
2018-03-22T00:46:44.317Z,19.25
2018-03-22T00:49:14.061Z,16.02
2018-03-22T00:51:42.815Z,14.23
2018-03-22T00:54:12.136Z,17.83
2018-03-22T00:56:41.055Z,16.98
2018-03-22T00:59:09.876Z,17.87
2018-03-22T01:01:39.019Z,19.37
2018-03-22T01:04:07.985Z,21.62
2018-03-22T01:06:36.919Z,20.55
2018-03-22T01:09:06.296Z,22.25
2018-03-22T01:11:35.430Z,23.87
2018-03-22T01:14:05.561Z,20.75
2018-03-22T01:16:35.216Z,26.52
2018-03-22T01:19:04.816Z,24.60
2018-03-22T01:21:33.715Z,23.87
2018-03-22T01:24:02.533Z,24.95
2018-03-22T01:26:31.974Z,24.77
2018-03-22T01:29:00.693Z,20.25
2018-03-22T01:31:29.527Z,23.50
2018-03-22T01:33:59.135Z,21.73
2018-03-22T01:36:28.003Z,24.75
2018-03-22T01:38:57.385Z,20.27
2018-03-22T01:41:26.381Z,19.12
2018-03-22T01:43:54.852Z,18.67
2018-03-22T01:46:24.577Z,22.80
2018-03-22T01:48:53.043Z,23.25
2018-03-22T01:51:21.718Z,20.35
2018-03-22T01:53:50.613Z,21.25
2018-03-22T01:56:19.114Z,20.92
2018-03-22T01:58:47.480Z,20.90
2018-03-22T02:01:17.702Z,21.40
2018-03-22T02:03:46.252Z,24.50
2018-03-22T02:06:15.348Z,24.87
2018-03-22T02:08:44.140Z,25.00
2018-03-22T02:11:13.152Z,24.17
2018-03-22T02:13:41.632Z,25.42
2018-03-22T02:16:10.531Z,26.52
2018-03-22T02:18:39.316Z,27.45
2018-03-22T02:21:08.244Z,26.92
2018-03-22T02:23:37.205Z,25.40
2018-03-22T02:26:05.742Z,30.62
2018-03-22T02:28:33.858Z,28.50
2018-03-22T02:31:02.363Z,28.10
2018-03-22T02:33:30.867Z,29.60
2018-03-22T02:36:00.406Z,26.25
2018-03-22T02:38:29.499Z,30.90
2018-03-22T02:40:58.112Z,34.10
2018-03-22T02:43:27.124Z,31.40
2018-03-22T02:45:56.674Z,34.58
2018-03-22T02:48:26.024Z,30.85
2018-03-22T02:50:54.656Z,32.58
2018-03-22T02:53:23.145Z,32.38
2018-03-22T02:55:51.694Z,35.38
2018-03-22T02:58:20.216Z,35.08
2018-03-22T03:00:48.640Z,32.22
2018-03-22T03:03:17.384Z,31.45
2018-03-22T03:05:45.563Z,35.20
2018-03-22T03:08:14.000Z,31.83
2018-03-22T03:10:42.557Z,31.23
2018-03-22T03:13:11.089Z,37.05
2018-03-22T03:15:39.584Z,32.08
2018-03-22T03:18:08.102Z,30.77
2018-03-22T03:20:37.260Z,30.50
2018-03-22T03:23:05.592Z,29.05
2018-03-22T03:25:34.596Z,31.33
2018-03-22T03:28:03.007Z,29.98
2018-03-22T03:30:31.589Z,30.62
2018-03-22T03:32:59.844Z,28.42
2018-03-22T03:35:28.656Z,28.98
2018-03-22T03:37:59.186Z,32.35
2018-03-22T03:40:27.677Z,29.67
2018-03-22T03:43:03.762Z,29.48
2018-03-22T03:45:32.811Z,29.77
2018-03-22T03:48:01.449Z,28.87
2018-03-22T03:50:30.733Z,28.00
2018-03-22T03:52:59.624Z,32.17
2018-03-22T03:55:28.445Z,25.83
2018-03-22T03:57:56.853Z,25.08
2018-03-22T04:00:25.281Z,25.27
2018-03-22T04:02:53.790Z,25.77
2018-03-22T04:05:21.956Z,25.33
2018-03-22T04:07:50.520Z,23.83
2018-03-22T04:10:19.981Z,24.92
2018-03-22T04:12:49.190Z,22.98
2018-03-22T04:15:17.727Z,24.40
2018-03-22T04:17:46.003Z,23.65
2018-03-22T04:20:15.745Z,28.45
2018-03-22T04:22:44.139Z,26.70
2018-03-22T04:25:13.311Z,24.55
2018-03-22T04:27:41.769Z,28.67
2018-03-22T04:30:10.733Z,23.55
2018-03-22T04:32:39.294Z,28.80
2018-03-22T04:35:07.826Z,27.45
2018-03-22T04:37:36.196Z,29.08
2018-03-22T04:40:05.421Z,32.25
2018-03-22T04:42:33.787Z,31.80
2018-03-22T04:45:02.208Z,28.52
2018-03-22T04:47:31.672Z,33.13
2018-03-22T04:50:00.140Z,30.55
2018-03-22T04:52:28.844Z,27.40
2018-03-22T04:54:57.205Z,36.33
2018-03-22T04:57:25.340Z,30.92
2018-03-22T04:59:54.612Z,31.58
2018-03-22T05:02:23.436Z,30.08
2018-03-22T05:04:52.619Z,34.60
2018-03-22T05:07:22.577Z,34.05
2018-03-22T05:09:51.300Z,32.72
2018-03-22T05:12:20.143Z,35.58
2018-03-22T05:14:49.108Z,32.15
2018-03-22T05:17:18.313Z,30.35
2018-03-22T05:19:47.046Z,36.03
2018-03-22T05:22:15.551Z,32.70
2018-03-22T05:24:44.688Z,39.45
2018-03-22T05:27:14.567Z,32.20
2018-03-22T05:29:43.246Z,35.50
2018-03-22T05:32:11.964Z,34.75
2018-03-22T05:34:41.600Z,34.75
2018-03-22T05:37:12.152Z,32.38
2018-03-22T05:39:41.508Z,35.35
2018-03-22T05:42:10.777Z,34.30
2018-03-22T05:44:39.282Z,36.47
2018-03-22T05:47:08.572Z,42.22
2018-03-22T05:49:38.071Z,33.53
2018-03-22T05:52:07.231Z,39.20
2018-03-22T05:54:36.248Z,33.08
2018-03-22T05:57:07.080Z,38.50
2018-03-22T05:59:37.820Z,34.63
2018-03-22T06:02:08.350Z,30.77
2018-03-22T06:04:37.642Z,36.63
2018-03-22T06:07:07.766Z,37.45
2018-03-22T06:09:36.575Z,31.17
2018-03-22T06:12:06.168Z,29.80
2018-03-22T06:14:35.683Z,38.00
2018-03-22T06:17:06.735Z,33.85
2018-03-22T06:19:36.161Z,35.75
2018-03-22T06:22:05.400Z,30.58
2018-03-22T06:24:34.077Z,34.55
2018-03-22T06:27:03.120Z,32.85
2018-03-22T06:29:32.075Z,31.05
2018-03-22T06:32:01.187Z,36.28
2018-03-22T06:34:31.101Z,35.88
2018-03-22T06:37:01.737Z,35.40
2018-03-22T06:39:31.236Z,32.83
2018-03-22T06:42:02.044Z,32.80
2018-03-22T06:44:32.857Z,36.70
2018-03-22T06:47:02.670Z,30.48
2018-03-22T06:49:31.695Z,31.52
2018-03-22T06:52:01.685Z,29.85
2018-03-22T06:54:31.060Z,29.48
2018-03-22T06:57:00.037Z,37.75
2018-03-22T06:59:30.688Z,37.38
2018-03-22T07:01:59.781Z,31.70
2018-03-22T07:04:30.378Z,32.25
2018-03-22T07:07:00.501Z,29.95
2018-03-22T07:09:29.383Z,35.35
2018-03-22T07:11:59.491Z,36.13
2018-03-22T07:14:28.828Z,29.87
2018-03-22T07:16:58.660Z,34.40
2018-03-22T07:19:28.433Z,36.83
2018-03-22T07:21:58.128Z,35.15
2018-03-22T07:24:27.856Z,38.47
2018-03-22T07:26:57.585Z,38.20
2018-03-22T07:29:27.293Z,38.22
2018-03-22T07:31:57.927Z,37.08
2018-03-22T07:34:27.225Z,31.12
2018-03-22T07:36:57.604Z,34.22
2018-03-22T07:39:27.710Z,27.98
2018-03-22T07:41:56.572Z,30.65
2018-03-22T07:44:30.134Z,25.12
2018-03-22T07:47:00.494Z,35.35
2018-03-22T07:49:30.053Z,29.83
2018-03-22T07:52:00.570Z,26.90
2018-03-22T07:54:30.198Z,28.65
2018-03-22T08:00:21.031Z,24.40
2018-03-22T08:02:51.238Z,27.90
2018-03-22T08:05:20.405Z,26.12
2018-03-22T08:07:49.758Z,25.08
2018-03-22T08:10:18.908Z,27.42
2018-03-22T08:12:48.192Z,25.70
2018-03-22T08:15:17.501Z,24.05
2018-03-22T08:17:47.150Z,24.15
2018-03-22T08:20:16.961Z,28.30
2018-03-22T08:22:46.392Z,30.15
2018-03-22T08:25:15.458Z,23.55
2018-03-22T08:27:45.517Z,23.58
2018-03-22T08:30:14.747Z,24.33
2018-03-22T08:32:44.081Z,22.98
2018-03-22T08:35:13.367Z,24.77
2018-03-22T08:37:42.706Z,27.03
2018-03-22T08:40:11.913Z,27.42
2018-03-22T08:42:42.200Z,27.33
2018-03-22T08:45:11.426Z,25.88
2018-03-22T08:47:42.934Z,23.02
2018-03-22T08:50:12.755Z,26.67
2018-03-22T08:52:41.952Z,25.77
2018-03-22T08:55:11.871Z,26.07
2018-03-22T08:57:41.935Z,25.23
2018-03-22T09:00:12.109Z,22.23
2018-03-22T09:02:41.247Z,28.42
2018-03-22T09:05:10.484Z,27.67
2018-03-22T09:07:40.729Z,23.98
2018-03-22T09:10:10.213Z,28.65
2018-03-22T09:12:39.398Z,22.13
2018-03-22T09:15:08.645Z,24.25
2018-03-22T09:17:37.968Z,22.02
2018-03-22T09:20:08.782Z,30.80
2018-03-22T09:22:37.959Z,18.48
2018-03-22T09:25:07.782Z,32.78
2018-03-22T09:27:36.890Z,35.97
2018-03-22T09:30:07.983Z,30.85
2018-03-22T09:32:39.544Z,26.23
2018-03-22T09:35:09.647Z,24.45
2018-03-22T09:37:59.578Z,22.13
2018-03-22T09:40:28.342Z,34.20
2018-03-22T09:42:57.826Z,38.95
2018-03-22T09:45:28.663Z,32.97
2018-03-22T09:47:59.546Z,32.20
2018-03-22T09:50:28.899Z,29.17
2018-03-22T09:52:58.930Z,19.02
2018-03-22T09:55:27.929Z,27.10
2018-03-22T09:57:57.198Z,24.33
2018-03-22T10:00:27.366Z,31.60
2018-03-22T10:02:57.040Z,28.67
2018-03-22T10:05:27.027Z,31.30
2018-03-22T10:07:56.304Z,29.90
2018-03-22T10:10:25.370Z,31.02
2018-03-22T10:12:54.617Z,26.77
2018-03-22T10:15:23.599Z,28.58
2018-03-22T10:17:52.798Z,29.80
2018-03-22T10:20:21.838Z,24.17
2018-03-22T10:22:52.281Z,27.75
2018-03-22T10:25:21.397Z,30.33
2018-03-22T10:27:50.642Z,30.77
2018-03-22T10:30:19.867Z,29.58
2018-03-22T10:32:49.032Z,29.40
2018-03-22T10:35:18.297Z,30.92
2018-03-22T10:37:47.910Z,28.05
2018-03-22T10:40:17.057Z,26.80
2018-03-22T10:42:46.809Z,32.78
2018-03-22T10:45:15.876Z,26.02
2018-03-22T10:47:45.219Z,26.98
2018-03-22T10:50:14.814Z,29.77
2018-03-22T10:52:44.478Z,31.07
2018-03-22T10:55:13.937Z,33.22
2018-03-22T10:57:43.124Z,33.53
2018-03-22T11:00:14.210Z,30.40
2018-03-22T11:02:48.266Z,36.78
2018-03-22T11:05:23.249Z,30.67
2018-03-22T11:07:54.551Z,31.50
2018-03-22T11:10:29.638Z,32.63
2018-03-22T11:13:05.637Z,30.70
2018-03-22T11:15:53.502Z,84.67
2018-03-22T11:18:42.078Z,35.85
2018-03-22T11:21:49.524Z,37.53
2018-03-22T11:24:33.016Z,31.50
2018-03-22T11:27:31.124Z,32.90
2018-03-22T11:30:05.167Z,31.67
2018-03-22T11:32:42.017Z,35.95
2018-03-22T11:35:20.698Z,32.05
2018-03-22T11:38:41.376Z,34.53
2018-03-22T11:51:21.695Z,28.30
2018-03-22T11:53:56.332Z,24.37
2018-03-22T11:56:43.748Z,26.75
2018-03-22T11:59:25.717Z,23.70
2018-03-22T12:02:10.231Z,23.07
2018-03-22T12:04:41.270Z,20.10
2018-03-22T12:07:42.670Z,17.17
2018-03-22T12:10:41.405Z,18.47
2018-03-22T12:16:31.446Z,19.07
2018-03-22T12:19:02.084Z,14.95
2018-03-22T12:21:30.975Z,13.50
2018-03-22T12:24:00.111Z,13.50
2018-03-22T12:26:29.798Z,15.05
2018-03-22T12:28:58.787Z,13.35
2018-03-22T12:31:27.861Z,16.85
2018-03-22T12:33:57.062Z,14.85
2018-03-22T12:36:25.937Z,16.23
2018-03-22T12:38:55.301Z,19.58
2018-03-22T12:41:25.402Z,13.13
2018-03-22T12:43:54.507Z,13.80
2018-03-22T12:46:23.406Z,15.65
2018-03-22T12:48:52.954Z,16.70
2018-03-22T12:51:23.060Z,14.00
2018-03-22T12:53:52.191Z,17.95
2018-03-22T12:56:21.275Z,20.17
2018-03-22T12:58:50.241Z,18.10
2018-03-22T13:01:19.060Z,22.10
2018-03-22T13:03:48.722Z,16.92
2018-03-22T13:06:18.557Z,17.12
2018-03-22T13:08:47.809Z,17.10
2018-03-22T13:11:31.003Z,18.37
2018-03-22T13:14:00.547Z,15.57
2018-03-22T13:16:30.545Z,18.00
2018-03-22T13:18:59.499Z,17.73
2018-03-22T13:21:28.624Z,22.67
2018-03-22T13:23:57.588Z,17.08
2018-03-22T13:26:26.740Z,17.48
2018-03-22T13:28:56.463Z,20.88
2018-03-22T13:31:25.830Z,20.00
2018-03-22T13:33:55.273Z,16.63
2018-03-22T13:36:25.370Z,16.87
2018-03-22T13:38:54.435Z,18.03
2018-03-22T13:41:23.504Z,19.27
2018-03-22T13:43:52.563Z,19.97
2018-03-22T13:46:22.786Z,18.83
2018-03-22T13:48:52.563Z,17.15
2018-03-22T13:51:23.250Z,19.90
2018-03-22T13:53:52.752Z,17.23
2018-03-22T13:56:22.349Z,16.77
2018-03-22T13:58:51.871Z,16.00
2018-03-22T14:01:20.812Z,15.30
2018-03-22T14:03:50.400Z,19.87
2018-03-22T14:06:19.278Z,19.97
2018-03-22T14:08:49.617Z,19.63
2018-03-22T14:11:18.361Z,21.90
2018-03-22T14:13:47.238Z,19.60
2018-03-22T14:16:17.248Z,19.75
2018-03-22T14:18:47.261Z,19.73
2018-03-22T14:21:17.533Z,20.33
2018-03-22T14:23:46.595Z,21.75
2018-03-22T14:26:16.325Z,15.17
2018-03-22T14:28:45.373Z,17.77
2018-03-22T14:31:15.112Z,17.50
2018-03-22T14:33:44.905Z,13.95
2018-03-22T14:36:14.609Z,18.23
2018-03-22T14:38:44.613Z,19.75
2018-03-22T14:41:13.436Z,17.60
2018-03-22T14:43:42.265Z,17.43
2018-03-22T14:46:11.656Z,17.67
2018-03-22T14:48:40.499Z,15.33
2018-03-22T14:51:10.129Z,18.17
2018-03-22T14:53:39.055Z,15.47
2018-03-22T14:56:08.005Z,17.60
2018-03-22T14:58:37.185Z,16.73
2018-03-22T15:01:06.240Z,20.03
2018-03-22T15:03:35.963Z,22.63
2018-03-22T15:06:05.281Z,16.20
2018-03-22T15:08:35.031Z,16.17
2018-03-22T15:11:04.395Z,17.03
2018-03-22T15:13:33.922Z,17.13
2018-03-22T15:16:03.491Z,14.83
2018-03-22T15:18:32.579Z,14.10
2018-03-22T15:21:01.484Z,20.77
2018-03-22T15:23:31.478Z,18.57
2018-03-22T15:26:02.062Z,18.97
2018-03-22T15:28:32.503Z,18.20
2018-03-22T15:31:03.238Z,17.97
2018-03-22T15:33:32.240Z,21.33
2018-03-22T15:36:01.219Z,23.40
2018-03-22T15:38:30.132Z,15.40
2018-03-22T15:40:58.891Z,16.37
2018-03-22T15:43:28.297Z,19.77
2018-03-22T15:45:57.077Z,16.00
2018-03-22T15:48:26.229Z,19.70
2018-03-22T15:50:55.653Z,18.03
2018-03-22T15:53:24.930Z,17.43
2018-03-22T15:55:54.484Z,16.43
2018-03-22T15:58:23.273Z,17.73
2018-03-22T16:00:51.930Z,17.93
2018-03-22T16:03:20.651Z,16.93
2018-03-22T16:05:49.684Z,18.20
2018-03-22T16:08:18.575Z,19.83
2018-03-22T16:10:47.506Z,18.17
2018-03-22T16:13:16.269Z,18.17
2018-03-22T16:15:45.854Z,17.63
2018-03-22T16:18:14.683Z,18.30
2018-03-22T16:20:43.395Z,17.60
2018-03-22T16:23:12.257Z,17.50
2018-03-22T16:25:41.111Z,18.13
2018-03-22T16:28:10.102Z,18.83
2018-03-22T16:30:39.166Z,15.37
2018-03-22T16:33:07.951Z,18.40
2018-03-22T16:35:36.698Z,16.60
2018-03-22T16:38:06.649Z,17.60
2018-03-22T16:40:35.428Z,18.70
2018-03-22T16:43:04.770Z,18.03
2018-03-22T16:45:33.611Z,18.50
2018-03-22T16:48:02.537Z,18.53
2018-03-22T16:50:31.575Z,17.33
2018-03-22T16:53:01.275Z,20.13
2018-03-22T16:55:30.964Z,19.07
2018-03-22T16:58:00.660Z,16.90
2018-03-22T17:00:29.426Z,19.47
2018-03-22T17:02:58.449Z,18.67
2018-03-22T17:05:27.293Z,21.23
2018-03-22T17:07:56.208Z,18.93
2018-03-22T17:10:25.194Z,20.03
2018-03-22T17:12:54.068Z,18.43
2018-03-22T17:15:23.049Z,21.30
2018-03-22T17:21:14.486Z,19.20
2018-03-22T17:23:43.985Z,20.97
2018-03-22T17:26:13.839Z,21.10
2018-03-22T17:28:42.773Z,25.50
2018-03-22T17:31:38.343Z,24.17
2018-03-22T17:34:07.159Z,24.13
2018-03-22T17:36:35.961Z,29.53
2018-03-22T17:39:05.954Z,23.87
2018-03-22T17:41:34.703Z,22.87
2018-03-22T17:44:04.174Z,24.53
2018-03-22T17:46:33.910Z,61.20
2018-03-22T17:49:02.941Z,29.43
2018-03-22T17:51:31.807Z,27.00
2018-03-22T17:54:00.547Z,28.80
2018-03-22T17:56:29.388Z,29.23
2018-03-22T17:58:58.972Z,32.53
2018-03-22T18:01:28.467Z,35.67
2018-03-22T18:03:58.240Z,35.17
2018-03-22T18:06:27.143Z,32.47
2018-03-22T18:08:55.920Z,33.07
2018-03-22T18:11:25.103Z,34.77
2018-03-22T18:13:54.421Z,38.73
2018-03-22T18:16:23.519Z,41.23
2018-03-22T18:18:52.252Z,42.43
2018-03-22T18:21:21.000Z,39.20
2018-03-22T18:23:49.777Z,39.77
2018-03-22T18:26:18.566Z,43.30
2018-03-22T18:28:47.675Z,43.07
2018-03-22T18:31:17.331Z,39.30
2018-03-22T18:33:46.030Z,48.70
2018-03-22T18:36:14.906Z,42.87
2018-03-22T18:38:43.891Z,41.00
2018-03-22T18:41:12.593Z,41.83
2018-03-22T18:43:41.273Z,43.95
2018-03-22T18:46:10.064Z,38.47
2018-03-22T18:48:38.850Z,43.90
2018-03-22T19:07:56.328Z,42.63
2018-03-22T19:10:25.998Z,44.57
2018-03-22T19:12:54.903Z,43.33
2018-03-22T19:15:23.837Z,43.90
2018-03-22T19:17:52.671Z,43.22
2018-03-22T19:20:23.302Z,42.80
2018-03-22T19:22:52.066Z,43.50
2018-03-22T19:25:21.241Z,43.93
2018-03-22T19:27:49.939Z,48.60
2018-03-22T19:30:20.832Z,43.03
2018-03-22T19:32:51.384Z,40.60
2018-03-22T19:35:22.530Z,46.37
2018-03-22T19:37:52.242Z,48.73
2018-03-22T19:40:21.087Z,52.15
2018-03-22T19:42:49.917Z,49.00
2018-03-22T19:45:18.692Z,48.57
2018-03-22T19:47:48.356Z,45.27
2018-03-22T19:50:17.155Z,51.93
2018-03-22T19:52:46.124Z,48.13
2018-03-22T19:55:15.033Z,48.93
2018-03-22T19:57:43.866Z,45.60
2018-03-22T20:00:13.459Z,45.67
2018-03-22T20:02:43.244Z,44.97
2018-03-22T20:05:13.396Z,44.67
2018-03-22T20:07:43.095Z,44.03
2018-03-22T20:10:11.903Z,40.72
2018-03-22T20:12:41.272Z,43.00
2018-03-22T20:15:10.103Z,41.97
2018-03-22T20:17:39.006Z,45.03
2018-03-22T20:20:08.424Z,39.53
2018-03-22T20:22:37.256Z,45.10
2018-03-22T20:25:06.606Z,41.83
2018-03-22T20:27:36.058Z,35.67
2018-03-22T20:30:05.453Z,41.77
2018-03-22T20:32:34.282Z,37.77
2018-03-22T20:35:03.261Z,39.80
2018-03-22T20:37:33.519Z,38.80
2018-03-22T20:40:02.435Z,40.40
2018-03-22T20:42:31.032Z,39.27
2018-03-22T20:45:00.577Z,35.70
2018-03-22T20:47:29.234Z,37.93
2018-03-22T20:49:58.821Z,33.50
2018-03-22T20:52:27.770Z,34.40
2018-03-22T20:54:56.451Z,37.17
2018-03-22T20:57:25.344Z,33.37
2018-03-22T20:59:54.340Z,35.23
2018-03-22T21:02:23.351Z,34.60
2018-03-22T21:04:52.016Z,35.70
2018-03-22T21:07:20.949Z,35.50
2018-03-22T21:09:49.699Z,35.60
2018-03-22T21:12:19.533Z,34.63
2018-03-22T21:14:49.113Z,33.73
2018-03-22T21:17:18.603Z,36.40
2018-03-22T21:19:47.610Z,33.33
2018-03-22T21:22:16.377Z,37.73
2018-03-22T21:24:45.860Z,35.13
2018-03-22T21:27:14.614Z,36.53
2018-03-22T21:29:43.801Z,36.83
2018-03-22T21:32:12.922Z,35.33
2018-03-22T21:34:42.557Z,35.73
2018-03-22T21:37:12.284Z,42.63
2018-03-22T21:39:41.247Z,35.50
2018-03-22T21:42:10.885Z,40.83
2018-03-22T21:44:40.746Z,39.43
2018-03-22T21:47:18.358Z,37.90
2018-03-22T21:49:47.572Z,41.43
2018-03-22T21:52:27.625Z,42.10
2018-03-22T21:54:57.339Z,44.00
2018-03-22T21:57:27.534Z,44.13
2018-03-22T21:59:56.979Z,46.30
2018-03-22T22:02:25.897Z,49.57
2018-03-22T22:04:54.794Z,46.63
2018-03-22T22:07:23.918Z,52.10
2018-03-22T22:09:53.709Z,48.57
2018-03-22T22:12:23.565Z,53.47
2018-03-22T22:14:52.467Z,56.60
2018-03-22T22:17:22.118Z,51.10
2018-03-22T22:19:51.123Z,51.43
2018-03-22T22:22:19.930Z,54.20
2018-03-22T22:24:49.615Z,57.23
2018-03-22T22:27:18.537Z,60.67
2018-03-22T22:29:47.876Z,54.83
2018-03-22T22:32:17.320Z,57.40
2018-03-22T22:34:46.149Z,63.77
2018-03-22T22:37:15.045Z,60.60
2018-03-22T22:39:44.043Z,63.13
2018-03-22T22:42:13.791Z,58.80
2018-03-22T22:44:43.420Z,61.03
2018-03-22T22:47:13.141Z,58.97
2018-03-22T22:49:42.751Z,66.17
2018-03-22T22:52:11.930Z,69.00
2018-03-22T22:54:40.905Z,66.20
2018-03-22T22:57:11.622Z,65.53
2018-03-22T22:59:41.016Z,71.20
2018-03-22T23:02:11.700Z,67.17
2018-03-22T23:04:40.926Z,61.97
2018-03-22T23:07:10.130Z,64.87
2018-03-22T23:09:39.411Z,67.10
2018-03-22T23:12:09.984Z,70.82
2018-03-22T23:14:39.738Z,65.03
2018-03-22T23:17:08.964Z,60.80
2018-03-22T23:19:37.989Z,60.43
2018-03-22T23:22:07.494Z,59.47
2018-03-22T23:24:36.678Z,65.30
2018-03-22T23:27:05.999Z,61.07
2018-03-22T23:29:36.383Z,58.43
2018-03-22T23:32:05.844Z,64.07
2018-03-22T23:34:36.468Z,65.53
2018-03-22T23:37:06.644Z,57.83
2018-03-22T23:39:35.681Z,57.88
2018-03-22T23:42:05.053Z,65.12
2018-03-22T23:44:34.880Z,66.13
2018-03-22T23:47:04.945Z,72.30
2018-03-22T23:49:34.067Z,70.20
2018-03-22T23:52:04.140Z,68.73
2018-03-22T23:54:34.150Z,66.57
2018-03-22T23:57:04.764Z,63.07
2018-03-22T23:59:35.215Z,66.07
